Terminal Aerodrome Forecast
Issued by NWS

Home | Current Version | Previous Version | Text Only | Print | Product List | Glossary On
Versions: 1 2 3 4 5 6 7 8 9 10 11 12
000
FTUS46 KSTO 031733
TAFSAC
TAF
KSAC 031733Z 0318/0418 VRB05KT P6SM OVC200
      TEMPO 0323/0403 22006KT
     FM040600 18005KT P6SM BKN100 OVC200=

USA.gov is the U.S. government's official web portal to all federal, state and local government web resources and services.